createdAt,value
2023-05-06T00:00:10.835Z,12.73
2023-05-06T00:02:45.050Z,11.13
2023-05-06T00:05:14.174Z,17.90
2023-05-06T00:07:43.014Z,13.57
2023-05-06T00:10:11.959Z,12.10
2023-05-06T00:12:41.036Z,13.10
2023-05-06T00:15:12.213Z,10.55
2023-05-06T00:17:41.192Z,12.98
2023-05-06T00:20:11.390Z,12.00
2023-05-06T00:22:40.244Z,18.60
2023-05-06T00:25:10.104Z,9.70
2023-05-06T00:27:39.863Z,10.38
2023-05-06T00:30:11.887Z,10.63
2023-05-06T00:32:40.844Z,11.18
2023-05-06T00:35:10.668Z,11.55
2023-05-06T00:37:39.727Z,10.57
2023-05-06T00:40:10.602Z,10.88
2023-05-06T00:42:39.490Z,9.32
2023-05-06T00:45:09.569Z,8.63
2023-05-06T00:47:40.579Z,12.20
2023-05-06T00:50:10.198Z,11.88
2023-05-06T00:52:39.151Z,8.77
2023-05-06T00:55:08.980Z,8.43
2023-05-06T00:57:38.621Z,8.98
2023-05-06T01:00:08.803Z,8.68
2023-05-06T01:02:47.020Z,9.65
2023-05-06T01:05:18.428Z,9.52
2023-05-06T01:07:53.875Z,8.70
2023-05-06T01:10:27.998Z,8.43
2023-05-06T01:13:05.746Z,8.32
2023-05-06T01:15:37.848Z,11.25
2023-05-06T01:18:11.977Z,7.40
2023-05-06T01:20:43.599Z,10.02
2023-05-06T01:23:15.443Z,9.00
2023-05-06T01:25:44.414Z,10.60
2023-05-06T01:28:14.247Z,10.93
2023-05-06T01:30:54.720Z,8.80
2023-05-06T01:33:33.471Z,14.40
2023-05-06T01:36:11.350Z,8.10
2023-05-06T01:38:48.085Z,10.00
2023-05-06T01:41:19.059Z,13.60
2023-05-06T01:43:50.821Z,8.90
2023-05-06T01:46:21.272Z,11.75
2023-05-06T01:48:53.973Z,13.25
2023-05-06T01:51:25.586Z,11.65
2023-05-06T01:53:55.890Z,19.65
2023-05-06T01:56:26.014Z,14.68
2023-05-06T01:58:54.928Z,15.45
2023-05-06T02:01:23.905Z,13.15
2023-05-06T02:03:53.071Z,15.23
2023-05-06T02:06:22.360Z,15.68
2023-05-06T02:08:51.271Z,14.02
2023-05-06T02:11:25.842Z,11.98
2023-05-06T02:14:00.292Z,10.10
2023-05-06T02:16:30.910Z,11.02
2023-05-06T02:18:59.764Z,9.50
2023-05-06T02:21:29.660Z,14.30
2023-05-06T02:23:58.546Z,13.13
2023-05-06T02:26:28.921Z,10.13
2023-05-06T02:28:57.803Z,12.73
2023-05-06T02:31:26.598Z,15.35
2023-05-06T02:33:55.444Z,10.95
2023-05-06T02:36:24.261Z,10.27
2023-05-06T02:38:53.058Z,14.00
2023-05-06T02:41:21.898Z,8.85
2023-05-06T02:43:52.151Z,8.00
2023-05-06T02:46:21.043Z,12.40
2023-05-06T02:48:49.999Z,16.77
2023-05-06T02:51:19.013Z,9.48
2023-05-06T02:53:47.845Z,8.13
2023-05-06T02:56:16.850Z,10.13
2023-05-06T02:58:45.785Z,8.20
2023-05-06T03:01:16.085Z,10.63
2023-05-06T03:03:45.075Z,10.38
2023-05-06T03:06:13.952Z,13.00
2023-05-06T03:08:42.991Z,14.73
2023-05-06T03:11:11.869Z,10.05
2023-05-06T03:13:40.744Z,10.48
2023-05-06T03:16:13.774Z,8.63
2023-05-06T03:18:47.138Z,9.93
2023-05-06T03:21:16.444Z,11.15
2023-05-06T03:23:47.616Z,11.75
2023-05-06T03:26:17.478Z,11.60
2023-05-06T03:28:47.623Z,9.80
2023-05-06T03:31:19.502Z,10.30
2023-05-06T03:33:50.185Z,12.85
2023-05-06T03:36:19.494Z,11.40
2023-05-06T03:38:50.397Z,11.40
2023-05-06T03:41:19.615Z,12.30
2023-05-06T03:43:48.464Z,14.00
2023-05-06T03:46:20.043Z,11.25
2023-05-06T03:48:50.395Z,9.90
2023-05-06T03:51:20.766Z,12.13
2023-05-06T03:53:49.722Z,15.68
2023-05-06T03:56:19.006Z,11.50
2023-05-06T03:58:51.069Z,15.85
2023-05-06T04:01:21.772Z,15.68
2023-05-06T04:03:54.527Z,12.15
2023-05-06T04:06:26.194Z,14.65
2023-05-06T04:08:55.414Z,21.98
2023-05-06T04:11:25.287Z,21.45
2023-05-06T04:13:54.292Z,30.60
2023-05-06T04:16:25.245Z,27.50
2023-05-06T04:18:57.595Z,18.08
2023-05-06T04:21:27.282Z,16.20
2023-05-06T04:24:02.927Z,12.38
2023-05-06T04:26:38.786Z,11.48
2023-05-06T04:29:07.966Z,11.13
2023-05-06T04:31:43.160Z,9.80
2023-05-06T04:34:16.719Z,8.13
2023-05-06T04:36:47.700Z,10.23
2023-05-06T04:39:27.729Z,9.82
2023-05-06T04:41:56.684Z,12.82
2023-05-06T04:44:34.317Z,8.35
2023-05-06T04:47:05.017Z,12.57
2023-05-06T04:49:36.196Z,18.00
2023-05-06T04:52:06.699Z,13.82
2023-05-06T04:54:35.878Z,9.60
2023-05-06T04:57:05.025Z,9.93
2023-05-06T04:59:35.357Z,13.15
2023-05-06T05:02:04.896Z,11.57
2023-05-06T05:04:35.101Z,10.23
2023-05-06T05:07:04.121Z,13.63
2023-05-06T05:09:34.623Z,18.85
2023-05-06T05:12:04.948Z,16.77
2023-05-06T05:14:37.412Z,22.35
2023-05-06T05:17:07.002Z,18.08
2023-05-06T05:19:37.746Z,17.10
2023-05-06T05:22:06.851Z,16.33
2023-05-06T05:24:35.868Z,11.10
2023-05-06T05:27:04.878Z,11.55
2023-05-06T05:29:34.468Z,11.35
2023-05-06T05:32:06.571Z,17.42
2023-05-06T05:34:37.400Z,10.82
2023-05-06T05:37:06.674Z,12.15
2023-05-06T05:39:36.693Z,11.32
2023-05-06T05:42:05.807Z,10.57
2023-05-06T05:44:36.759Z,7.07
2023-05-06T05:47:07.085Z,7.05
2023-05-06T05:49:38.706Z,12.48
2023-05-06T05:52:09.907Z,7.82
2023-05-06T05:54:39.405Z,7.93
2023-05-06T05:57:09.107Z,5.57
2023-05-06T05:59:38.699Z,11.10
2023-05-06T06:02:09.025Z,5.43
2023-05-06T06:04:40.085Z,6.63
2023-05-06T06:07:09.427Z,4.93
2023-05-06T06:09:42.147Z,4.80
2023-05-06T06:12:11.163Z,13.57
2023-05-06T06:14:44.918Z,8.27
2023-05-06T06:17:14.160Z,6.82
2023-05-06T06:19:46.785Z,7.05
2023-05-06T06:22:15.789Z,5.75
2023-05-06T06:24:45.728Z,4.00
2023-05-06T06:27:14.576Z,7.82
2023-05-06T06:29:43.494Z,3.05
2023-05-06T06:32:12.511Z,5.65
2023-05-06T06:34:41.722Z,5.28
2023-05-06T06:37:13.111Z,5.05
2023-05-06T06:39:41.931Z,9.10
2023-05-06T06:42:10.842Z,7.05
2023-05-06T06:44:49.546Z,5.50
2023-05-06T06:47:18.427Z,5.95
2023-05-06T06:49:47.292Z,3.95
2023-05-06T06:52:17.512Z,5.65
2023-05-06T06:54:46.386Z,6.38
2023-05-06T06:57:15.241Z,8.15
2023-05-06T06:59:44.090Z,5.18
2023-05-06T07:02:12.898Z,5.78
2023-05-06T07:04:41.808Z,4.45
2023-05-06T07:07:10.728Z,5.13
2023-05-06T07:09:41.528Z,5.35
2023-05-06T07:12:10.497Z,5.32
2023-05-06T07:14:39.379Z,3.92
2023-05-06T07:17:08.406Z,3.83
2023-05-06T07:19:37.251Z,6.90
2023-05-06T07:22:06.088Z,4.90
2023-05-06T07:24:34.929Z,4.80
2023-05-06T07:27:05.295Z,4.60
2023-05-06T07:29:34.922Z,5.35
2023-05-06T07:32:04.158Z,5.55
2023-05-06T07:34:34.207Z,3.83
2023-05-06T07:37:03.901Z,9.05
2023-05-06T07:39:32.721Z,4.90
2023-05-06T07:42:02.193Z,7.20
2023-05-06T07:44:32.398Z,7.85
2023-05-06T07:47:02.152Z,4.03
2023-05-06T07:49:33.289Z,5.35
2023-05-06T07:52:03.540Z,4.20
2023-05-06T07:54:32.629Z,4.78
2023-05-06T07:57:02.457Z,4.75
2023-05-06T07:59:32.730Z,3.30
2023-05-06T08:02:02.108Z,5.07
2023-05-06T08:04:31.039Z,5.68
2023-05-06T08:06:59.877Z,3.92
2023-05-06T08:09:28.676Z,6.60
2023-05-06T08:11:58.483Z,4.95
2023-05-06T08:14:27.302Z,7.80
2023-05-06T08:16:57.582Z,5.78
2023-05-06T08:19:26.489Z,8.05
2023-05-06T08:21:55.506Z,9.02
2023-05-06T08:24:24.354Z,6.90
2023-05-06T08:26:53.270Z,5.28
2023-05-06T08:29:22.047Z,8.50
2023-05-06T08:31:50.980Z,6.38
2023-05-06T08:34:21.388Z,4.95
2023-05-06T08:36:50.626Z,4.97
2023-05-06T08:39:19.478Z,5.63
2023-05-06T08:41:49.624Z,10.65
2023-05-06T08:44:20.294Z,10.43
2023-05-06T08:46:49.649Z,7.10
2023-05-06T08:49:18.540Z,5.15
2023-05-06T08:51:52.460Z,3.42
2023-05-06T08:54:21.413Z,6.43
2023-05-06T08:56:54.762Z,6.97
2023-05-06T08:59:25.895Z,6.30
2023-05-06T09:01:54.854Z,5.30
2023-05-06T09:04:23.729Z,4.15
2023-05-06T09:06:53.972Z,5.35
2023-05-06T09:09:22.792Z,6.57
2023-05-06T09:11:54.215Z,5.30
2023-05-06T09:14:23.413Z,4.03
2023-05-06T09:16:53.852Z,3.95
2023-05-06T09:19:23.665Z,6.57
2023-05-06T09:21:53.862Z,2.63
2023-05-06T09:24:22.725Z,4.47
2023-05-06T09:26:55.144Z,3.10
2023-05-06T09:29:24.004Z,8.30
2023-05-06T09:31:55.384Z,5.35
2023-05-06T09:34:24.779Z,2.95
2023-05-06T09:36:57.257Z,3.65
2023-05-06T09:39:27.999Z,4.30
2023-05-06T09:41:56.860Z,6.65
2023-05-06T09:44:26.169Z,3.65
2023-05-06T09:46:55.094Z,4.65
2023-05-06T09:49:24.237Z,5.43
2023-05-06T09:51:55.069Z,11.18
2023-05-06T09:54:24.943Z,3.58
2023-05-06T09:56:54.514Z,3.75
2023-05-06T09:59:25.602Z,4.18
2023-05-06T10:01:55.404Z,2.67
2023-05-06T10:04:27.208Z,3.60
2023-05-06T10:07:00.523Z,5.70
2023-05-06T10:09:31.316Z,5.22
2023-05-06T10:12:00.754Z,8.15
2023-05-06T10:14:30.493Z,5.03
2023-05-06T10:17:00.745Z,3.03
2023-05-06T10:19:29.785Z,2.70
2023-05-06T10:22:07.633Z,3.67
2023-05-06T10:24:48.252Z,5.13
2023-05-06T10:27:23.516Z,8.18
2023-05-06T10:32:23.293Z,4.72
2023-05-06T10:34:56.444Z,3.63
2023-05-06T10:37:29.335Z,7.20
2023-05-06T10:39:58.802Z,2.08
2023-05-06T10:42:29.316Z,2.83
2023-05-06T10:44:59.101Z,3.03
2023-05-06T10:47:28.304Z,6.80
2023-05-06T10:50:22.100Z,6.30
2023-05-06T10:52:55.567Z,10.35
2023-05-06T10:55:29.449Z,8.57
2023-05-06T10:58:02.061Z,13.35
2023-05-06T11:00:35.186Z,6.82
2023-05-06T11:03:06.890Z,3.78
2023-05-06T11:05:48.625Z,5.60
2023-05-06T11:08:23.885Z,5.95
2023-05-06T11:13:24.155Z,3.15
2023-05-06T11:15:53.550Z,7.05
2023-05-06T11:18:44.217Z,2.50
2023-05-06T11:21:38.881Z,2.55
2023-05-06T11:24:10.305Z,3.58
2023-05-06T11:26:42.055Z,7.38
2023-05-06T11:29:11.343Z,7.78
2023-05-06T11:31:42.176Z,6.20
2023-05-06T11:34:13.621Z,16.95
2023-05-06T11:36:55.009Z,5.55
2023-05-06T11:39:25.739Z,1.95
2023-05-06T11:41:54.850Z,7.05
2023-05-06T11:44:28.668Z,4.45
2023-05-06T11:46:59.226Z,2.72
2023-05-06T11:49:28.648Z,1.60
2023-05-06T11:51:58.266Z,6.15
2023-05-06T11:54:28.981Z,5.63
2023-05-06T11:56:58.066Z,5.88
2023-05-06T11:59:32.393Z,1.80
2023-05-06T12:02:04.231Z,5.00
2023-05-06T12:04:41.429Z,4.63
2023-05-06T12:07:12.138Z,2.17
2023-05-06T12:09:45.742Z,3.10
2023-05-06T12:12:17.708Z,2.47
2023-05-06T12:14:48.314Z,1.85
2023-05-06T12:17:17.697Z,4.35
2023-05-06T12:19:47.742Z,8.38
2023-05-06T12:22:20.646Z,4.68
2023-05-06T12:24:50.986Z,5.00
2023-05-06T12:27:31.240Z,5.32
2023-05-06T12:30:00.673Z,1.50
2023-05-06T12:32:29.575Z,3.92
2023-05-06T12:34:59.563Z,2.60
2023-05-06T12:37:30.495Z,5.85
2023-05-06T12:40:02.089Z,3.20
2023-05-06T12:42:31.078Z,6.88
2023-05-06T12:44:59.900Z,4.97
2023-05-06T12:47:28.802Z,5.63
2023-05-06T12:49:59.387Z,5.88
2023-05-06T12:52:30.105Z,4.25
2023-05-06T12:55:03.266Z,3.70
2023-05-06T12:57:32.167Z,3.97
2023-05-06T13:00:01.152Z,4.22
2023-05-06T13:02:30.017Z,7.28
2023-05-06T13:04:58.827Z,3.63
2023-05-06T13:07:27.770Z,5.03
2023-05-06T13:09:56.577Z,8.00
2023-05-06T13:12:26.808Z,5.13
2023-05-06T13:14:55.710Z,3.55
2023-05-06T13:17:24.856Z,3.60
2023-05-06T13:19:53.871Z,3.15
2023-05-06T13:22:22.762Z,2.58
2023-05-06T13:24:51.786Z,4.82
2023-05-06T13:27:20.553Z,2.70
2023-05-06T13:29:50.825Z,3.72
2023-05-06T13:32:19.646Z,1.92
2023-05-06T13:34:48.438Z,4.20
2023-05-06T13:37:17.302Z,3.15
2023-05-06T13:39:46.163Z,5.97
2023-05-06T13:42:14.991Z,2.90
2023-05-06T13:44:43.824Z,2.17
2023-05-06T13:47:14.073Z,3.25
2023-05-06T13:49:42.872Z,2.33
2023-05-06T13:52:11.656Z,5.38
2023-05-06T13:54:40.563Z,2.72
2023-05-06T13:57:09.428Z,13.32
2023-05-06T13:59:38.241Z,2.00
2023-05-06T14:02:09.589Z,4.55
2023-05-06T14:04:40.252Z,3.13
2023-05-06T14:07:09.066Z,2.80
2023-05-06T14:09:37.933Z,1.85
2023-05-06T14:12:07.118Z,2.63
2023-05-06T14:14:35.965Z,5.10
2023-05-06T14:17:04.841Z,5.38
2023-05-06T14:19:33.655Z,2.08
2023-05-06T14:22:03.909Z,4.82
2023-05-06T14:24:32.749Z,10.00
2023-05-06T14:27:02.060Z,5.07
2023-05-06T14:29:30.999Z,3.35
2023-05-06T14:31:59.902Z,6.05
2023-05-06T14:34:29.494Z,5.18
2023-05-06T14:36:59.057Z,3.55
2023-05-06T14:39:29.318Z,6.45
2023-05-06T14:41:58.265Z,5.03
2023-05-06T14:44:27.113Z,7.55
2023-05-06T14:46:55.896Z,9.93
2023-05-06T14:49:24.667Z,12.00
2023-05-06T14:51:53.484Z,4.15
2023-05-06T14:54:22.355Z,12.35
2023-05-06T14:56:53.951Z,11.55
2023-05-06T14:59:23.007Z,22.75
2023-05-06T15:01:51.874Z,8.70
2023-05-06T15:04:20.875Z,2.92
2023-05-06T15:06:49.667Z,3.58
2023-05-06T15:09:18.467Z,5.20
2023-05-06T15:11:47.317Z,6.38
2023-05-06T15:14:17.592Z,14.20
2023-05-06T15:16:46.670Z,57.25
2023-05-06T15:19:15.515Z,45.38
2023-05-06T15:21:44.388Z,17.95
2023-05-06T15:24:13.279Z,2.88
2023-05-06T15:26:42.067Z,4.38
2023-05-06T15:29:10.933Z,11.23
2023-05-06T15:31:41.648Z,5.22
2023-05-06T15:34:11.886Z,27.98
2023-05-06T15:36:41.687Z,16.75
2023-05-06T15:39:10.704Z,5.45
2023-05-06T15:41:39.737Z,14.85
2023-05-06T15:44:10.593Z,7.70
2023-05-06T15:46:40.990Z,3.00
2023-05-06T15:49:39.686Z,8.18
2023-05-06T15:52:01.024Z,8.40
2023-05-06T15:54:31.447Z,13.07
2023-05-06T15:57:04.878Z,8.32
2023-05-06T15:59:35.300Z,4.68
2023-05-06T16:04:37.696Z,3.90
2023-05-06T16:07:07.766Z,5.32
2023-05-06T16:09:36.606Z,4.97
2023-05-06T16:12:06.098Z,6.78
2023-05-06T16:14:35.031Z,3.30
2023-05-06T16:17:05.273Z,2.45
2023-05-06T16:19:35.169Z,3.20
2023-05-06T16:22:04.641Z,4.13
2023-05-06T16:24:33.488Z,3.22
2023-05-06T16:27:02.501Z,4.72
2023-05-06T16:29:31.338Z,4.50
2023-05-06T16:32:00.268Z,3.47
2023-05-06T16:34:31.081Z,4.00
2023-05-06T16:37:00.605Z,5.75
2023-05-06T16:39:29.761Z,2.50
2023-05-06T16:41:58.612Z,3.10
2023-05-06T16:44:27.478Z,4.90
2023-05-06T16:46:56.656Z,4.60
2023-05-06T16:49:27.859Z,8.30
2023-05-06T16:51:58.468Z,6.60
2023-05-06T16:54:27.338Z,5.78
2023-05-06T16:56:56.219Z,6.25
2023-05-06T16:59:25.094Z,3.17
2023-05-06T17:01:54.082Z,5.72
2023-05-06T17:04:24.668Z,5.35
2023-05-06T17:06:53.533Z,4.50
2023-05-06T17:09:23.943Z,3.97
2023-05-06T17:11:52.865Z,4.70
2023-05-06T17:14:22.120Z,2.97
2023-05-06T17:16:52.072Z,3.78
2023-05-06T17:19:20.993Z,5.28
2023-05-06T17:21:49.828Z,4.38
2023-05-06T17:24:18.710Z,5.38
2023-05-06T17:26:49.011Z,5.47
2023-05-06T17:29:17.874Z,2.40
2023-05-06T17:31:46.690Z,3.40
2023-05-06T17:34:15.765Z,3.40
2023-05-06T17:36:44.624Z,4.88
2023-05-06T17:39:13.479Z,3.85
2023-05-06T17:41:42.357Z,11.60
2023-05-06T17:44:12.548Z,4.00
2023-05-06T17:46:41.492Z,4.25
2023-05-06T17:49:10.551Z,8.38
2023-05-06T17:51:40.887Z,4.78
2023-05-06T17:54:09.796Z,4.18
2023-05-06T17:56:38.755Z,3.45
2023-05-06T17:59:07.924Z,3.75
2023-05-06T18:01:38.155Z,3.38
2023-05-06T18:04:07.473Z,4.97
2023-05-06T18:06:36.436Z,5.63
2023-05-06T18:09:05.312Z,17.40
2023-05-06T18:11:34.237Z,9.48
2023-05-06T18:14:03.721Z,8.15
2023-05-06T18:16:32.714Z,8.13
2023-05-06T18:19:05.126Z,7.15
2023-05-06T18:21:34.614Z,8.45
2023-05-06T18:24:15.306Z,4.85
2023-05-06T18:26:46.175Z,6.35
2023-05-06T18:29:15.320Z,4.82
2023-05-06T18:31:44.204Z,7.60
2023-05-06T18:34:14.675Z,5.43
2023-05-06T18:36:43.543Z,8.27
2023-05-06T18:39:12.369Z,10.48
2023-05-06T18:41:41.447Z,12.45
2023-05-06T18:44:10.326Z,12.50
2023-05-06T18:46:39.150Z,11.60
2023-05-06T18:49:08.307Z,13.32
2023-05-06T18:51:39.083Z,25.00
2023-05-06T18:54:08.299Z,10.80
2023-05-06T18:56:38.042Z,16.42
2023-05-06T18:59:06.866Z,16.65
2023-05-06T19:01:35.829Z,13.73
2023-05-06T19:04:05.015Z,11.85
2023-05-06T19:06:33.834Z,10.02
2023-05-06T19:09:04.188Z,13.43
2023-05-06T19:11:33.957Z,20.88
2023-05-06T19:14:03.314Z,18.30
2023-05-06T19:16:32.144Z,14.93
2023-05-06T19:19:02.650Z,12.40
2023-05-06T19:21:31.478Z,12.77
2023-05-06T19:24:01.051Z,11.70
2023-05-06T19:26:31.376Z,9.45
2023-05-06T19:29:00.278Z,11.68
2023-05-06T19:31:29.797Z,11.63
2023-05-06T19:33:58.728Z,8.98
2023-05-06T19:36:28.339Z,11.05
2023-05-06T19:38:57.240Z,13.25
2023-05-06T19:41:26.382Z,10.88
2023-05-06T19:43:56.599Z,9.50
2023-05-06T19:46:25.569Z,20.08
2023-05-06T19:48:54.508Z,36.85
2023-05-06T19:51:23.329Z,27.75
2023-05-06T19:53:52.135Z,23.88
2023-05-06T19:56:21.091Z,23.52
2023-05-06T19:58:51.090Z,25.08
2023-05-06T20:01:23.929Z,24.95
2023-05-06T20:03:53.044Z,17.08
2023-05-06T20:06:21.970Z,17.33
2023-05-06T20:08:50.843Z,17.60
2023-05-06T20:11:20.099Z,11.05
2023-05-06T20:13:48.899Z,10.80
2023-05-06T20:16:17.803Z,9.20
2023-05-06T20:18:49.463Z,12.00
2023-05-06T20:21:18.354Z,8.85
2023-05-06T20:23:47.156Z,9.48
2023-05-06T20:26:16.361Z,9.70
2023-05-06T20:28:45.230Z,12.07
2023-05-06T20:31:14.082Z,8.60
2023-05-06T20:33:42.910Z,10.10
2023-05-06T20:36:13.118Z,11.55
2023-05-06T20:38:41.960Z,12.23
2023-05-06T20:41:10.869Z,15.85
2023-05-06T20:43:39.712Z,16.27
2023-05-06T20:46:09.030Z,15.32
2023-05-06T20:48:37.938Z,16.10
2023-05-06T20:51:06.751Z,12.73
2023-05-06T20:53:37.470Z,22.73
2023-05-06T20:56:08.187Z,15.55
2023-05-06T20:58:37.008Z,11.25
2023-05-06T21:01:05.935Z,16.13
2023-05-06T21:03:34.978Z,21.23
2023-05-06T21:06:04.553Z,14.38
2023-05-06T21:08:33.415Z,11.57
2023-05-06T21:11:03.653Z,14.90
2023-05-06T21:13:32.559Z,14.27
2023-05-06T21:16:02.112Z,12.43
2023-05-06T21:18:31.123Z,13.38
2023-05-06T21:21:00.159Z,14.00
2023-05-06T21:23:29.656Z,11.82
2023-05-06T21:25:59.606Z,10.55
2023-05-06T21:28:29.823Z,13.40
2023-05-06T21:30:58.751Z,14.00
2023-05-06T21:33:27.662Z,17.20
2023-05-06T21:35:56.849Z,14.35
2023-05-06T21:38:27.881Z,12.85
2023-05-06T21:40:56.918Z,15.85
2023-05-06T21:43:25.774Z,19.30
2023-05-06T21:45:56.031Z,25.13
2023-05-06T21:48:24.840Z,21.98
2023-05-06T21:50:55.021Z,17.23
2023-05-06T21:53:23.867Z,18.75
2023-05-06T21:55:53.283Z,19.20
2023-05-06T21:58:22.088Z,20.77
2023-05-06T22:00:50.991Z,16.27
2023-05-06T22:03:21.309Z,15.27
2023-05-06T22:05:50.270Z,17.33
2023-05-06T22:08:19.127Z,23.05
2023-05-06T22:10:48.012Z,34.17
2023-05-06T22:13:16.893Z,23.55
2023-05-06T22:15:45.834Z,16.88
2023-05-06T22:18:14.962Z,23.70
2023-05-06T22:20:46.616Z,21.25
2023-05-06T22:23:15.423Z,19.38
2023-05-06T22:25:44.328Z,21.25
2023-05-06T22:28:13.231Z,18.58
2023-05-06T22:30:42.039Z,23.08
2023-05-06T22:33:10.940Z,19.63
2023-05-06T22:35:39.865Z,22.27
2023-05-06T22:38:10.075Z,21.73
2023-05-06T22:40:38.942Z,19.85
2023-05-06T22:43:07.855Z,21.38
2023-05-06T22:45:36.779Z,19.25
2023-05-06T22:48:06.313Z,17.45
2023-05-06T22:50:35.290Z,19.75
2023-05-06T22:53:13.755Z,16.23
2023-05-06T22:55:46.103Z,21.45
2023-05-06T22:58:15.388Z,15.60
2023-05-06T23:00:47.840Z,15.75
2023-05-06T23:03:17.988Z,12.57
2023-05-06T23:05:47.104Z,13.45
2023-05-06T23:08:16.658Z,19.48
2023-05-06T23:10:47.404Z,13.95
2023-05-06T23:13:16.265Z,17.60
2023-05-06T23:15:45.105Z,17.23
2023-05-06T23:18:14.035Z,10.23
2023-05-06T23:20:43.356Z,13.63
2023-05-06T23:23:12.192Z,10.57
2023-05-06T23:25:41.169Z,8.88
2023-05-06T23:28:11.330Z,10.32
2023-05-06T23:30:40.236Z,21.13
2023-05-06T23:33:09.158Z,16.65
2023-05-06T23:35:38.058Z,24.80
2023-05-06T23:38:06.897Z,16.02
2023-05-06T23:40:35.741Z,25.55
2023-05-06T23:43:07.104Z,13.77
2023-05-06T23:45:37.364Z,9.70
2023-05-06T23:48:07.126Z,11.57
2023-05-06T23:50:36.094Z,15.73
2023-05-06T23:53:04.979Z,14.18
2023-05-06T23:55:33.967Z,12.65
2023-05-06T23:58:03.354Z,13.52
